Time;durP1;ratioP1;P1;durP2;ratioP2;P2;SDS_P1;SDS_P2;PMS_P1;PMS_P2;Temp;Humidity;BMP_temperature;BMP_pressure;BME280_temperature;BME280_humidity;BME280_pressure;Samples;Min_cycle;Max_cycle;Signal;HPM_P1;HPM_P2
2021/12/11 00:02:17;;;;;;;;;6.00;4.00;;;;;;;;5027449;27;46021;-74
2021/12/11 00:04:43;;;;;;;;;4.00;4.00;;;;;;;;5108433;27;45387;-74
2021/12/11 00:07:11;;;;;;;;;6.00;6.00;;;;;;;;5086719;27;45405;-75
2021/12/11 00:09:36;;;;;;;;;7.75;7.00;;;;;;;;5111097;27;45649;-74
2021/12/11 00:12:05;;;;;;;;;5.25;5.25;;;;;;;;5088028;27;45514;-73
2021/12/11 00:14:31;;;;;;;;;7.00;6.75;;;;;;;;5084003;27;45549;-74
2021/12/11 00:16:57;;;;;;;;;3.00;2.25;;;;;;;;5090516;27;45439;-74
2021/12/11 00:19:24;;;;;;;;;4.75;4.75;;;;;;;;5108239;27;46103;-74
2021/12/11 00:21:49;;;;;;;;;2.75;2.75;;;;;;;;5102882;27;45497;-75
2021/12/11 00:24:15;;;;;;;;;7.25;6.50;;;;;;;;5087531;27;45392;-74
2021/12/11 00:26:42;;;;;;;;;4.25;4.00;;;;;;;;5107348;27;45344;-74
2021/12/11 00:29:09;;;;;;;;;7.75;4.75;;;;;;;;5082833;27;47293;-75
2021/12/11 00:31:35;;;;;;;;;5.75;3.75;;;;;;;;5104050;27;45439;-74
2021/12/11 00:34:03;;;;;;;;;6.00;4.25;;;;;;;;5081933;27;45728;-75
2021/12/11 00:36:32;;;;;;;;;7.00;6.00;;;;;;;;5103790;27;45305;-75
2021/12/11 00:39:05;;;;;;;;;7.25;7.25;;;;;;;;5113964;27;45564;-75
2021/12/11 00:41:33;;;;;;;;;6.75;4.00;;;;;;;;5090873;27;46214;-74
2021/12/11 00:44:01;;;;;;;;;5.50;4.50;;;;;;;;5107287;27;45383;-74
2021/12/11 00:46:27;;;;;;;;;5.75;4.00;;;;;;;;5089302;27;45522;-73
2021/12/11 00:48:52;;;;;;;;;8.50;5.00;;;;;;;;5106462;27;45759;-74
2021/12/11 00:51:19;;;;;;;;;6.25;4.00;;;;;;;;5081779;27;45449;-74
2021/12/11 00:53:47;;;;;;;;;3.00;3.00;;;;;;;;5094770;27;45945;-74
2021/12/11 00:56:15;;;;;;;;;6.00;6.00;;;;;;;;5092579;27;45669;-74
2021/12/11 00:58:42;;;;;;;;;4.00;4.00;;;;;;;;5092793;27;47910;-74
2021/12/11 01:01:07;;;;;;;;;5.25;4.00;;;;;;;;5093507;27;45501;-74
2021/12/11 01:03:32;;;;;;;;;6.00;6.00;;;;;;;;5115173;27;45597;-74
2021/12/11 01:06:00;;;;;;;;;6.50;4.00;;;;;;;;5113590;27;45414;-74
2021/12/11 01:08:32;;;;;;;;;8.50;4.50;;;;;;;;5092309;27;47735;-74
2021/12/11 01:11:17;;;;;;;;;4.00;4.00;;;;;;;;5106113;27;45326;-74
2021/12/11 01:13:52;;;;;;;;;4.00;4.00;;;;;;;;5091762;27;45491;-74
2021/12/11 01:16:17;;;;;;;;;3.50;3.50;;;;;;;;5092685;27;45346;-74
2021/12/11 01:18:44;;;;;;;;;4.25;2.50;;;;;;;;5113978;27;45843;-74
2021/12/11 01:25:03;;;;;;;;;6.25;3.50;;;;;;;;5011344;28;45397;-74
2021/12/11 01:27:04;;;;;;;;;3.75;3.75;;;;;;;;5011012;28;45504;-74
2021/12/11 01:29:30;;;;;;;;;3.75;3.75;;;;;;;;5010317;28;48089;-74
2021/12/11 01:31:56;;;;;;;;;2.25;2.25;;;;;;;;5019026;28;45644;-73
2021/12/11 01:34:22;;;;;;;;;3.00;3.00;;;;;;;;5011346;28;45525;-73
2021/12/11 01:36:48;;;;;;;;;2.00;2.00;;;;;;;;5012203;28;45557;-73
2021/12/11 01:39:16;;;;;;;;;3.00;3.00;;;;;;;;5012240;28;48552;-73
2021/12/11 01:41:42;;;;;;;;;2.50;0.00;;;;;;;;5026322;28;45674;-75
2021/12/11 01:44:12;;;;;;;;;7.50;6.00;;;;;;;;5008521;28;45466;-74
2021/12/11 01:46:38;;;;;;;;;7.00;6.00;;;;;;;;5004931;28;45399;-75
2021/12/11 01:49:06;;;;;;;;;6.00;3.50;;;;;;;;5014467;28;46439;-75
2021/12/11 01:51:34;;;;;;;;;3.75;1.25;;;;;;;;5013248;28;45397;-74
2021/12/11 01:54:05;;;;;;;;;2.00;2.00;;;;;;;;5029105;28;45518;-74
2021/12/11 01:56:32;;;;;;;;;4.00;3.00;;;;;;;;5005657;28;45407;-74
2021/12/11 01:59:00;;;;;;;;;7.50;3.00;;;;;;;;5069224;27;48566;-74
2021/12/11 02:01:30;;;;;;;;;3.00;3.00;;;;;;;;5091784;27;45591;-74
2021/12/11 02:03:56;;;;;;;;;3.25;3.00;;;;;;;;5094409;27;45519;-74
2021/12/11 02:06:26;;;;;;;;;4.00;2.00;;;;;;;;5094596;27;45356;-74
2021/12/11 02:08:51;;;;;;;;;6.25;5.50;;;;;;;;5100690;27;45497;-74
2021/12/11 02:11:21;;;;;;;;;5.00;4.50;;;;;;;;5101486;27;45451;-74
2021/12/11 02:13:53;;;;;;;;;5.75;3.00;;;;;;;;5101759;27;45452;-74
2021/12/11 02:16:20;;;;;;;;;4.50;2.00;;;;;;;;5083187;27;45525;-73
2021/12/11 02:18:49;;;;;;;;;6.75;4.00;;;;;;;;5085804;27;47945;-73
2021/12/11 02:21:18;;;;;;;;;3.75;3.75;;;;;;;;5112365;27;45431;-72
2021/12/11 02:23:44;;;;;;;;;3.25;3.00;;;;;;;;5092021;27;45409;-74
2021/12/11 02:26:14;;;;;;;;;7.00;6.25;;;;;;;;5091554;27;45494;-74
2021/12/11 02:28:47;;;;;;;;;3.75;3.00;;;;;;;;5091468;27;48508;-74
2021/12/11 02:31:19;;;;;;;;;3.00;3.00;;;;;;;;5094078;27;45774;-73
2021/12/11 02:33:44;;;;;;;;;3.00;2.50;;;;;;;;5098626;27;45436;-74
2021/12/11 02:36:36;;;;;;;;;2.50;2.25;;;;;;;;5096126;27;45572;-74
2021/12/11 02:39:07;;;;;;;;;6.00;4.00;;;;;;;;5098787;27;46609;-73
2021/12/11 02:41:33;;;;;;;;;5.50;3.00;;;;;;;;5108917;27;45517;-74
2021/12/11 02:44:01;;;;;;;;;2.00;2.00;;;;;;;;5097286;27;45274;-73
2021/12/11 02:46:29;;;;;;;;;5.25;2.00;;;;;;;;5118974;27;45780;-74
2021/12/11 02:49:00;;;;;;;;;7.00;4.00;;;;;;;;5084491;27;48885;-73
2021/12/11 02:51:25;;;;;;;;;6.00;4.00;;;;;;;;5083813;27;45727;-74
2021/12/11 02:53:58;;;;;;;;;2.00;2.00;;;;;;;;5085466;27;45381;-74
2021/12/11 02:56:30;;;;;;;;;3.50;3.50;;;;;;;;5086071;27;45551;-74
2021/12/11 02:58:57;;;;;;;;;4.50;2.25;;;;;;;;5089636;27;48728;-74
2021/12/11 03:01:30;;;;;;;;;3.00;3.00;;;;;;;;5112825;27;45622;-75
2021/12/11 03:04:22;;;;;;;;;3.00;3.00;;;;;;;;5116060;27;45183;-75
2021/12/11 03:06:49;;;;;;;;;1.50;1.00;;;;;;;;5089285;27;45531;-74
2021/12/11 03:09:16;;;;;;;;;4.00;4.00;;;;;;;;5096450;27;48472;-74
2021/12/11 03:11:42;;;;;;;;;5.75;2.50;;;;;;;;5094820;27;45469;-75
2021/12/11 03:14:12;;;;;;;;;2.75;2.75;;;;;;;;5094191;27;45824;-74
2021/12/11 03:16:38;;;;;;;;;4.25;4.25;;;;;;;;5094505;27;45394;-74
2021/12/11 03:19:04;;;;;;;;;3.75;3.25;;;;;;;;5093815;27;47586;-75
2021/12/11 03:21:30;;;;;;;;;6.00;3.25;;;;;;;;5096967;27;45537;-74
2021/12/11 03:23:56;;;;;;;;;7.75;3.00;;;;;;;;5096243;27;46044;-73
2021/12/11 03:26:21;;;;;;;;;3.00;2.00;;;;;;;;5094696;27;45475;-74
2021/12/11 03:28:46;;;;;;;;;7.50;4.00;;;;;;;;5094346;27;48925;-74
2021/12/11 03:31:12;;;;;;;;;3.00;3.00;;;;;;;;5112998;27;45414;-73
2021/12/11 03:33:40;;;;;;;;;3.00;3.00;;;;;;;;5117197;27;45478;-73
2021/12/11 03:36:06;;;;;;;;;2.25;2.00;;;;;;;;5096406;27;45629;-75
2021/12/11 03:38:32;;;;;;;;;2.00;2.00;;;;;;;;5112328;27;46234;-75
2021/12/11 03:40:58;;;;;;;;;3.25;2.75;;;;;;;;5093755;27;45319;-74
2021/12/11 03:43:24;;;;;;;;;2.00;2.00;;;;;;;;5112316;27;45495;-75
2021/12/11 03:45:51;;;;;;;;;5.50;3.00;;;;;;;;5116406;27;45278;-75
2021/12/11 03:48:20;;;;;;;;;5.50;4.00;;;;;;;;5095208;27;47791;-75
2021/12/11 03:50:46;;;;;;;;;2.75;2.75;;;;;;;;5108884;27;45380;-75
2021/12/11 03:53:12;;;;;;;;;3.25;2.00;;;;;;;;5085548;27;45479;-75
2021/12/11 03:55:43;;;;;;;;;3.00;2.50;;;;;;;;5110105;27;45396;-74
2021/12/11 03:58:09;;;;;;;;;4.00;3.25;;;;;;;;5113074;27;45856;-75
2021/12/11 04:00:46;;;;;;;;;2.75;2.50;;;;;;;;5097868;27;45329;-76
2021/12/11 04:03:13;;;;;;;;;7.00;3.00;;;;;;;;5096608;27;45385;-73
2021/12/11 04:05:40;;;;;;;;;3.50;2.00;;;;;;;;5093967;27;45234;-74
2021/12/11 04:08:07;;;;;;;;;2.00;2.00;;;;;;;;5089829;27;47893;-75
2021/12/11 04:10:32;;;;;;;;;2.00;2.00;;;;;;;;5085152;27;45491;-74
2021/12/11 04:12:59;;;;;;;;;3.25;2.25;;;;;;;;5101512;27;45361;-74
2021/12/11 04:15:25;;;;;;;;;2.00;2.00;;;;;;;;5101100;27;45263;-75
2021/12/11 04:17:51;;;;;;;;;4.00;3.25;;;;;;;;5087215;27;48690;-75
2021/12/11 04:20:18;;;;;;;;;2.50;2.50;;;;;;;;5093544;27;46000;-75
2021/12/11 04:22:44;;;;;;;;;2.25;2.25;;;;;;;;5112011;27;45522;-75
2021/12/11 04:25:11;;;;;;;;;2.25;1.75;;;;;;;;5112865;27;45418;-75
2021/12/11 04:27:36;;;;;;;;;3.25;2.00;;;;;;;;5097436;27;48854;-74
2021/12/11 04:30:04;;;;;;;;;4.00;3.00;;;;;;;;5095124;27;45448;-75
2021/12/11 04:32:32;;;;;;;;;4.00;4.00;;;;;;;;5112065;27;45410;-75
2021/12/11 04:34:58;;;;;;;;;7.75;3.00;;;;;;;;5108991;27;45443;-75
2021/12/11 04:37:26;;;;;;;;;3.25;3.00;;;;;;;;5102954;27;46028;-75
2021/12/11 04:39:57;;;;;;;;;3.50;2.75;;;;;;;;5081259;27;46189;-75
2021/12/11 04:45:16;;;;;;;;;5.00;3.00;;;;;;;;5070897;27;45352;-72
2021/12/11 04:50:20;;;;;;;;;5.75;3.00;;;;;;;;5062623;28;45366;-75
2021/12/11 05:00:28;;;;;;;;;6.25;3.50;;;;;;;;5074825;28;45301;-75
2021/12/11 05:03:12;;;;;;;;;8.25;4.00;;;;;;;;5059072;28;45392;-75
2021/12/11 05:11:03;;;;;;;;;6.25;6.25;;;;;;;;5062163;28;45397;-74
2021/12/11 05:13:29;;;;;;;;;6.00;6.00;;;;;;;;5064124;28;45585;-75
2021/12/11 05:15:56;;;;;;;;;7.75;4.75;;;;;;;;5056710;28;45571;-74
2021/12/11 05:18:23;;;;;;;;;7.75;6.00;;;;;;;;5055462;28;47806;-74
2021/12/11 05:20:50;;;;;;;;;6.75;5.50;;;;;;;;5058156;28;45428;-75
2021/12/11 05:23:16;;;;;;;;;8.75;8.00;;;;;;;;5086264;27;45697;-74
2021/12/11 05:25:41;;;;;;;;;4.00;3.50;;;;;;;;5089694;27;45558;-74
2021/12/11 05:28:07;;;;;;;;;10.75;8.00;;;;;;;;5087655;27;47582;-74
2021/12/11 05:30:35;;;;;;;;;9.00;8.00;;;;;;;;5088814;27;45401;-74
2021/12/11 05:33:01;;;;;;;;;8.00;8.00;;;;;;;;5082220;27;45553;-74
2021/12/11 05:35:27;;;;;;;;;10.00;10.00;;;;;;;;5102911;27;45404;-75
2021/12/11 05:37:53;;;;;;;;;10.50;10.00;;;;;;;;5082909;27;47621;-75
2021/12/11 05:40:20;;;;;;;;;12.00;9.25;;;;;;;;5110366;27;45463;-75
2021/12/11 05:42:46;;;;;;;;;9.25;9.25;;;;;;;;5093559;27;45665;-72
2021/12/11 05:45:11;;;;;;;;;5.75;5.25;;;;;;;;5095701;27;45547;-74
2021/12/11 05:47:36;;;;;;;;;8.50;8.00;;;;;;;;5107394;27;47569;-74
2021/12/11 05:50:03;;;;;;;;;8.25;7.25;;;;;;;;5116212;27;45503;-73
2021/12/11 05:52:29;;;;;;;;;12.25;9.25;;;;;;;;5090871;27;45759;-73
2021/12/11 05:54:54;;;;;;;;;11.50;11.00;;;;;;;;5102463;27;45681;-72
2021/12/11 05:57:20;;;;;;;;;11.00;10.00;;;;;;;;5093462;27;47495;-74
2021/12/11 05:59:47;;;;;;;;;14.25;8.25;;;;;;;;5106129;27;45416;-74
2021/12/11 06:02:17;;;;;;;;;7.25;4.50;;;;;;;;5083524;27;45616;-75
2021/12/11 06:04:44;;;;;;;;;5.25;5.25;;;;;;;;5083259;27;45396;-76
2021/12/11 06:07:10;;;;;;;;;6.00;5.00;;;;;;;;5086192;27;48552;-75
2021/12/11 06:09:37;;;;;;;;;3.75;3.75;;;;;;;;5095313;27;46260;-76
2021/12/11 06:12:07;;;;;;;;;6.00;4.00;;;;;;;;5112065;27;45388;-76
2021/12/11 06:14:33;;;;;;;;;5.75;3.00;;;;;;;;5091689;27;45711;-75
2021/12/11 06:17:00;;;;;;;;;6.25;5.75;;;;;;;;5090654;27;48268;-75
2021/12/11 06:19:27;;;;;;;;;6.00;4.50;;;;;;;;5091222;27;45815;-74
2021/12/11 06:21:53;;;;;;;;;7.00;5.50;;;;;;;;5094772;27;45376;-75
2021/12/11 06:24:19;;;;;;;;;7.50;6.00;;;;;;;;5111212;27;45555;-74
2021/12/11 06:26:44;;;;;;;;;6.00;6.00;;;;;;;;5082172;27;48021;-76
2021/12/11 06:29:09;;;;;;;;;9.50;5.00;;;;;;;;5086110;27;46148;-76
2021/12/11 06:31:35;;;;;;;;;9.25;7.00;;;;;;;;5089020;27;45694;-75
2021/12/11 06:34:00;;;;;;;;;7.00;6.25;;;;;;;;5111312;27;45435;-74
2021/12/11 06:36:26;;;;;;;;;7.00;4.50;;;;;;;;5110709;27;45493;-75
2021/12/11 06:38:53;;;;;;;;;4.50;4.50;;;;;;;;5093216;27;45534;-74
2021/12/11 06:41:21;;;;;;;;;8.00;4.25;;;;;;;;5109990;27;45436;-75
2021/12/11 06:43:49;;;;;;;;;13.00;7.25;;;;;;;;5109707;27;45354;-76
2021/12/11 06:46:14;;;;;;;;;6.75;6.00;;;;;;;;5094385;27;47758;-75
2021/12/11 06:48:39;;;;;;;;;9.75;5.50;;;;;;;;5096950;27;45334;-75
2021/12/11 06:51:05;;;;;;;;;7.00;7.00;;;;;;;;5100615;27;45340;-75
2021/12/11 06:53:35;;;;;;;;;9.50;8.75;;;;;;;;5101154;27;45467;-74
2021/12/11 06:56:01;;;;;;;;;9.50;7.75;;;;;;;;5082560;27;47622;-75
2021/12/11 06:58:27;;;;;;;;;12.00;8.25;;;;;;;;5083554;27;46422;-76
2021/12/11 07:00:53;;;;;;;;;8.75;8.75;;;;;;;;5088626;27;45362;-75
2021/12/11 07:03:18;;;;;;;;;9.75;6.75;;;;;;;;5111895;27;45540;-75
2021/12/11 07:05:44;;;;;;;;;10.75;5.75;;;;;;;;5110413;27;46138;-75
2021/12/11 07:08:12;;;;;;;;;10.00;8.00;;;;;;;;5090896;27;45334;-75
2021/12/11 07:10:38;;;;;;;;;7.50;7.50;;;;;;;;5091017;27;45405;-75
2021/12/11 07:13:03;;;;;;;;;9.00;8.00;;;;;;;;5098971;27;45828;-74
2021/12/11 07:15:29;;;;;;;;;14.00;10.75;;;;;;;;5097682;27;45747;-75
2021/12/11 07:17:54;;;;;;;;;7.50;7.50;;;;;;;;5079170;27;46137;-75
2021/12/11 07:20:19;;;;;;;;;7.75;7.00;;;;;;;;5082681;27;45490;-75
2021/12/11 07:22:44;;;;;;;;;7.00;7.00;;;;;;;;5084289;27;45542;-75
2021/12/11 07:25:16;;;;;;;;;9.25;6.75;;;;;;;;5085055;27;47690;-75
2021/12/11 07:27:42;;;;;;;;;8.00;7.00;;;;;;;;5101416;27;45496;-75
2021/12/11 07:30:08;;;;;;;;;6.50;6.00;;;;;;;;5096090;27;45478;-75
2021/12/11 07:32:33;;;;;;;;;6.00;6.00;;;;;;;;5092173;27;46093;-74
2021/12/11 07:34:58;;;;;;;;;6.00;6.00;;;;;;;;5093452;27;47705;-74
2021/12/11 07:37:24;;;;;;;;;7.00;6.00;;;;;;;;5112589;27;45309;-75
2021/12/11 07:39:49;;;;;;;;;6.75;5.00;;;;;;;;5096987;27;47893;-74
2021/12/11 07:42:14;;;;;;;;;12.25;7.50;;;;;;;;5095437;27;45465;-74
2021/12/11 07:44:39;;;;;;;;;10.50;9.50;;;;;;;;5086729;27;47673;-73
2021/12/11 07:47:05;;;;;;;;;11.00;7.00;;;;;;;;5084627;27;45737;-71
2021/12/11 07:49:31;;;;;;;;;6.25;6.25;;;;;;;;5103196;27;45843;-75
2021/12/11 07:51:56;;;;;;;;;10.50;10.50;;;;;;;;5082914;27;45304;-74
2021/12/11 07:54:21;;;;;;;;;17.25;9.25;;;;;;;;5101043;27;45717;-74
2021/12/11 07:56:47;;;;;;;;;10.25;10.25;;;;;;;;5103440;27;45656;-74
2021/12/11 07:59:12;;;;;;;;;11.25;9.25;;;;;;;;5103984;27;45486;-75
2021/12/11 08:01:41;;;;;;;;;9.25;9.25;;;;;;;;5106205;27;45265;-73
2021/12/11 08:04:06;;;;;;;;;10.50;8.00;;;;;;;;5095312;27;47994;-75
2021/12/11 08:06:32;;;;;;;;;13.25;11.75;;;;;;;;5096162;27;45420;-76
2021/12/11 08:08:58;;;;;;;;;11.75;11.75;;;;;;;;5113757;27;45850;-76
2021/12/11 08:11:25;;;;;;;;;12.00;11.00;;;;;;;;5093417;27;45452;-76
2021/12/11 08:13:51;;;;;;;;;13.25;11.75;;;;;;;;5093495;27;47865;-75
2021/12/11 08:16:20;;;;;;;;;16.75;15.50;;;;;;;;5111549;27;45368;-76
2021/12/11 08:18:46;;;;;;;;;14.25;14.25;;;;;;;;5100787;27;45351;-76
2021/12/11 08:21:11;;;;;;;;;15.25;13.50;;;;;;;;5114331;27;45284;-76
2021/12/11 08:23:43;;;;;;;;;13.25;13.25;;;;;;;;5092937;27;47624;-76
2021/12/11 08:26:08;;;;;;;;;13.50;13.50;;;;;;;;5093062;27;46226;-76
2021/12/11 08:28:34;;;;;;;;;17.00;17.00;;;;;;;;5093799;27;45363;-77
2021/12/11 08:30:59;;;;;;;;;13.75;13.00;;;;;;;;5102522;27;45377;-74
2021/12/11 08:33:25;;;;;;;;;13.75;13.75;;;;;;;;5085104;27;47302;-75
2021/12/11 08:35:51;;;;;;;;;13.50;11.75;;;;;;;;5105380;27;45326;-76
2021/12/11 08:38:17;;;;;;;;;17.00;15.75;;;;;;;;5089351;27;45375;-75
2021/12/11 08:40:45;;;;;;;;;15.50;13.50;;;;;;;;5108931;27;45303;-76
2021/12/11 08:43:11;;;;;;;;;16.25;14.50;;;;;;;;5095183;27;47709;-76
2021/12/11 08:45:55;;;;;;;;;17.25;17.25;;;;;;;;5128073;27;45297;-73
2021/12/11 08:48:22;;;;;;;;;17.75;15.25;;;;;;;;5119649;27;44775;-76
2021/12/11 08:50:49;;;;;;;;;24.00;23.00;;;;;;;;5108589;27;45407;-76
2021/12/11 08:53:15;;;;;;;;;18.75;16.25;;;;;;;;5084847;27;47340;-76
2021/12/11 08:55:43;;;;;;;;;16.75;16.75;;;;;;;;5101731;27;45345;-76
2021/12/11 08:58:11;;;;;;;;;19.75;18.00;;;;;;;;5104979;27;45507;-76
2021/12/11 09:00:55;;;;;;;;;20.00;14.75;;;;;;;;5114464;27;45361;-76
2021/12/11 09:03:30;;;;;;;;;15.50;13.75;;;;;;;;5088032;27;47480;-76
2021/12/11 09:05:59;;;;;;;;;12.75;12.75;;;;;;;;5101647;27;45537;-76
2021/12/11 09:08:33;;;;;;;;;14.00;10.50;;;;;;;;5083627;27;45775;-75
2021/12/11 09:11:11;;;;;;;;;11.00;10.75;;;;;;;;5101134;27;45416;-75
2021/12/11 09:13:48;;;;;;;;;12.25;10.25;;;;;;;;5084552;27;46558;-75
2021/12/11 09:16:20;;;;;;;;;13.50;10.00;;;;;;;;5101738;27;45297;-75
2021/12/11 09:18:49;;;;;;;;;11.50;9.00;;;;;;;;5100169;27;45480;-75
2021/12/11 09:21:23;;;;;;;;;11.75;10.75;;;;;;;;5095643;27;44831;-73
2021/12/11 09:23:52;;;;;;;;;9.50;7.75;;;;;;;;5093205;27;48619;-72
2021/12/11 09:26:25;;;;;;;;;12.75;11.50;;;;;;;;5092606;27;45555;-70
2021/12/11 09:28:59;;;;;;;;;1.25;1.25;;;;;;;;5091274;27;45455;-75
2021/12/11 09:31:32;;;;;;;;;10.75;10.00;;;;;;;;5113803;27;45336;-75
2021/12/11 09:34:00;;;;;;;;;10.75;8.00;;;;;;;;5099551;27;45756;-75
2021/12/11 09:36:30;;;;;;;;;9.50;9.50;;;;;;;;5114355;27;45516;-75
2021/12/11 09:39:00;;;;;;;;;9.25;9.25;;;;;;;;5115934;27;45422;-74
2021/12/11 09:41:25;;;;;;;;;10.25;10.25;;;;;;;;5090773;27;45528;-76
2021/12/11 09:43:53;;;;;;;;;9.00;9.00;;;;;;;;5091527;27;47833;-76
2021/12/11 09:46:21;;;;;;;;;16.50;10.00;;;;;;;;5089909;27;46391;-75
2021/12/11 09:48:48;;;;;;;;;14.75;13.75;;;;;;;;5115929;27;45159;-76
2021/12/11 09:51:16;;;;;;;;;9.50;9.50;;;;;;;;5095652;27;45408;-76
2021/12/11 09:53:43;;;;;;;;;15.00;13.50;;;;;;;;5112071;27;45324;-76
2021/12/11 09:56:12;;;;;;;;;8.00;8.00;;;;;;;;5092702;27;47224;-76
2021/12/11 09:58:38;;;;;;;;;12.50;10.00;;;;;;;;5108873;27;45294;-75
2021/12/11 10:01:07;;;;;;;;;13.00;10.75;;;;;;;;5113393;27;45383;-76
2021/12/11 10:03:35;;;;;;;;;10.50;9.75;;;;;;;;5094559;27;48813;-76
2021/12/11 10:06:25;;;;;;;;;13.50;10.00;;;;;;;;5087736;27;45322;-75
2021/12/11 10:09:07;;;;;;;;;14.50;14.25;;;;;;;;5090469;27;45395;-75
2021/12/11 10:11:32;;;;;;;;;21.00;17.25;;;;;;;;5084978;27;45424;-77
2021/12/11 10:14:06;;;;;;;;;16.25;14.25;;;;;;;;5105077;27;45833;-75
2021/12/11 10:16:35;;;;;;;;;13.25;10.25;;;;;;;;5103122;27;45318;-75
2021/12/11 10:19:00;;;;;;;;;15.75;11.75;;;;;;;;5102784;27;45522;-76
2021/12/11 10:21:29;;;;;;;;;9.00;8.00;;;;;;;;5082815;27;45662;-76
2021/12/11 10:23:57;;;;;;;;;6.25;6.25;;;;;;;;5103669;27;46254;-75
2021/12/11 10:26:25;;;;;;;;;16.75;13.25;;;;;;;;5101624;27;45445;-75
2021/12/11 10:28:52;;;;;;;;;5.25;3.75;;;;;;;;5101678;27;45354;-76
2021/12/11 10:31:25;;;;;;;;;9.25;4.00;;;;;;;;5107497;27;45532;-75
2021/12/11 10:33:51;;;;;;;;;10.50;10.50;;;;;;;;5111089;27;45456;-75
2021/12/11 10:36:18;;;;;;;;;10.50;9.50;;;;;;;;5081801;27;45409;-77
2021/12/11 10:38:43;;;;;;;;;8.25;8.25;;;;;;;;5102501;27;45524;-77
2021/12/11 10:41:10;;;;;;;;;9.00;6.75;;;;;;;;5101796;27;45483;-76
2021/12/11 10:43:37;;;;;;;;;13.75;9.75;;;;;;;;5091714;27;48530;-75
2021/12/11 10:46:05;;;;;;;;;8.50;8.50;;;;;;;;5093637;27;46240;-75
2021/12/11 10:48:32;;;;;;;;;9.00;8.00;;;;;;;;5113413;27;47970;-75
2021/12/11 10:50:59;;;;;;;;;7.75;4.50;;;;;;;;5112847;27;45391;-72
2021/12/11 10:53:27;;;;;;;;;6.25;6.25;;;;;;;;5085426;27;48780;-78
2021/12/11 10:55:53;;;;;;;;;11.00;10.00;;;;;;;;5102037;27;45515;-78
2021/12/11 10:58:22;;;;;;;;;5.00;4.00;;;;;;;;5087780;27;45400;-76
2021/12/11 11:00:53;;;;;;;;;4.50;4.00;;;;;;;;5106652;27;45471;-76
2021/12/11 11:03:19;;;;;;;;;4.00;2.75;;;;;;;;5084507;27;47800;-73
2021/12/11 11:05:45;;;;;;;;;6.00;5.50;;;;;;;;5095646;27;46262;-77
2021/12/11 11:08:10;;;;;;;;;11.00;6.00;;;;;;;;5094989;27;45394;-77
2021/12/11 11:10:38;;;;;;;;;18.75;18.75;;;;;;;;5112788;27;45336;-75
2021/12/11 11:13:06;;;;;;;;;7.25;6.25;;;;;;;;5114554;27;46133;-76
2021/12/11 11:15:32;;;;;;;;;6.25;5.00;;;;;;;;5116115;27;45343;-75
2021/12/11 11:17:57;;;;;;;;;8.75;7.00;;;;;;;;5115441;27;45356;-76
2021/12/11 11:20:25;;;;;;;;;7.25;4.50;;;;;;;;5094721;27;45175;-76
2021/12/11 11:22:50;;;;;;;;;11.75;9.50;;;;;;;;5094392;27;48630;-76
2021/12/11 11:25:20;;;;;;;;;8.75;8.00;;;;;;;;5113317;27;45958;-76
2021/12/11 11:27:48;;;;;;;;;9.00;7.75;;;;;;;;5081910;27;45343;-75
2021/12/11 11:30:17;;;;;;;;;9.00;7.25;;;;;;;;5084649;27;45548;-77
2021/12/11 11:32:43;;;;;;;;;5.00;4.75;;;;;;;;5102897;27;48667;-76
2021/12/11 11:35:14;;;;;;;;;7.00;4.75;;;;;;;;5108724;27;45338;-77
2021/12/11 11:37:40;;;;;;;;;4.00;4.00;;;;;;;;5114472;27;45340;-77
2021/12/11 11:40:08;;;;;;;;;3.00;3.00;;;;;;;;5103574;27;45464;-77
2021/12/11 11:42:34;;;;;;;;;5.00;4.00;;;;;;;;5111019;27;46181;-78
2021/12/11 11:45:00;;;;;;;;;5.25;3.75;;;;;;;;5123294;27;44841;-77
2021/12/11 11:47:25;;;;;;;;;4.75;4.00;;;;;;;;5091363;27;45455;-82
2021/12/11 11:49:56;;;;;;;;;6.00;6.00;;;;;;;;5087673;27;45436;-79
2021/12/11 11:52:22;;;;;;;;;4.00;4.00;;;;;;;;5106126;27;45854;-80
2021/12/11 11:54:49;;;;;;;;;4.00;3.00;;;;;;;;5110171;27;45296;-80
2021/12/11 11:57:34;;;;;;;;;4.75;4.00;;;;;;;;5106073;27;45226;-79
2021/12/11 12:00:00;;;;;;;;;5.00;3.75;;;;;;;;5102976;27;45290;-77
2021/12/11 12:02:28;;;;;;;;;5.25;4.50;;;;;;;;5092955;27;48532;-81
2021/12/11 12:04:55;;;;;;;;;11.00;8.00;;;;;;;;5103897;27;45438;-81
2021/12/11 12:07:26;;;;;;;;;9.50;6.25;;;;;;;;5087268;27;45390;-78
2021/12/11 12:09:52;;;;;;;;;8.25;4.50;;;;;;;;5101424;27;45455;-78
2021/12/11 12:12:17;;;;;;;;;8.25;5.25;;;;;;;;5090361;27;47383;-77
2021/12/11 12:14:44;;;;;;;;;8.25;6.25;;;;;;;;5099310;27;45341;-80
2021/12/11 12:17:11;;;;;;;;;6.75;4.50;;;;;;;;5093896;27;45509;-78
2021/12/11 12:19:36;;;;;;;;;7.75;6.00;;;;;;;;5113633;27;45530;-77
2021/12/11 12:22:04;;;;;;;;;8.25;5.00;;;;;;;;5108275;27;45999;-78
2021/12/11 12:24:31;;;;;;;;;5.50;4.50;;;;;;;;5107348;27;45402;-78
2021/12/11 12:26:57;;;;;;;;;4.50;3.25;;;;;;;;5106674;27;45491;-78
2021/12/11 12:29:22;;;;;;;;;4.25;4.00;;;;;;;;5104952;27;45467;-70
2021/12/11 12:31:52;;;;;;;;;10.75;8.50;;;;;;;;5111939;27;46527;-71
2021/12/11 12:34:19;;;;;;;;;6.50;5.25;;;;;;;;5095809;27;46140;-73
2021/12/11 12:36:45;;;;;;;;;9.00;7.75;;;;;;;;5108557;27;45429;-73
2021/12/11 12:39:11;;;;;;;;;6.50;6.00;;;;;;;;5080775;27;45397;-66
2021/12/11 12:41:39;;;;;;;;;6.00;6.00;;;;;;;;5084565;27;47636;-76
2021/12/11 12:44:17;;;;;;;;;6.50;5.00;;;;;;;;5107740;27;45459;-78
2021/12/11 12:46:45;;;;;;;;;5.75;5.00;;;;;;;;5103444;27;45309;-77
2021/12/11 12:49:11;;;;;;;;;4.00;4.00;;;;;;;;5105124;27;45388;-78
2021/12/11 12:51:37;;;;;;;;;8.00;8.00;;;;;;;;5102351;27;45536;-78
2021/12/11 12:54:04;;;;;;;;;9.25;7.00;;;;;;;;5103143;27;45392;-79
2021/12/11 12:56:32;;;;;;;;;11.00;9.50;;;;;;;;5086659;27;45581;-78
2021/12/11 12:59:03;;;;;;;;;11.25;10.25;;;;;;;;5088988;27;45534;-71
2021/12/11 13:01:49;;;;;;;;;7.50;5.50;;;;;;;;5084525;27;48454;-78
2021/12/11 13:04:15;;;;;;;;;6.50;6.50;;;;;;;;5092638;27;45425;-74
2021/12/11 13:06:43;;;;;;;;;12.00;7.75;;;;;;;;5095277;27;45372;-74
2021/12/11 13:09:14;;;;;;;;;9.00;7.00;;;;;;;;5078814;27;45389;-73
2021/12/11 13:11:45;;;;;;;;;6.25;5.75;;;;;;;;5100688;27;46297;-73
2021/12/11 13:14:10;;;;;;;;;8.25;6.00;;;;;;;;5089091;27;45471;-72
2021/12/11 13:16:38;;;;;;;;;6.25;6.25;;;;;;;;5092688;27;45447;-73
2021/12/11 13:19:09;;;;;;;;;8.50;5.00;;;;;;;;5100005;27;45412;-72
2021/12/11 13:21:37;;;;;;;;;7.25;7.25;;;;;;;;5078498;27;47372;-72
2021/12/11 13:24:04;;;;;;;;;9.50;7.25;;;;;;;;5112589;27;45230;-73
2021/12/11 13:26:30;;;;;;;;;15.75;11.75;;;;;;;;5110912;27;46196;-73
2021/12/11 13:28:57;;;;;;;;;11.00;8.75;;;;;;;;5088884;27;45351;-74
2021/12/11 13:31:29;;;;;;;;;22.00;17.50;;;;;;;;5083949;27;46165;-72
2021/12/11 13:33:55;;;;;;;;;12.00;9.75;;;;;;;;5080578;27;46292;-73
2021/12/11 13:36:21;;;;;;;;;6.00;5.00;;;;;;;;5100268;27;45238;-75
2021/12/11 13:38:46;;;;;;;;;10.00;8.75;;;;;;;;5112741;27;46921;-75
2021/12/11 13:41:15;;;;;;;;;9.50;9.50;;;;;;;;5106012;27;46394;-74
2021/12/11 13:43:41;;;;;;;;;7.75;4.25;;;;;;;;5102035;27;45478;-74
2021/12/11 13:46:07;;;;;;;;;6.00;4.75;;;;;;;;5082061;27;45387;-73
2021/12/11 13:48:33;;;;;;;;;7.25;7.25;;;;;;;;5080779;27;45516;-74
2021/12/11 13:51:06;;;;;;;;;5.50;4.50;;;;;;;;5101145;27;45766;-74
2021/12/11 13:53:33;;;;;;;;;7.00;7.00;;;;;;;;5113999;27;45370;-73
2021/12/11 13:55:59;;;;;;;;;5.00;5.00;;;;;;;;5110602;27;45289;-73
2021/12/11 13:58:24;;;;;;;;;7.00;4.75;;;;;;;;5112819;27;45353;-74
2021/12/11 14:00:56;;;;;;;;;3.50;3.00;;;;;;;;5114464;27;45306;-74
2021/12/11 14:03:23;;;;;;;;;5.00;5.00;;;;;;;;5077783;27;45780;-72
2021/12/11 14:05:50;;;;;;;;;6.50;4.75;;;;;;;;5111603;27;45404;-73
2021/12/11 14:08:16;;;;;;;;;5.00;4.25;;;;;;;;5110084;27;45406;-77
2021/12/11 14:10:42;;;;;;;;;4.50;3.25;;;;;;;;5110217;27;47849;-77
2021/12/11 14:13:10;;;;;;;;;6.00;5.00;;;;;;;;5093318;27;45541;-78
2021/12/11 14:15:36;;;;;;;;;7.25;5.00;;;;;;;;5113630;27;45425;-75
2021/12/11 14:18:02;;;;;;;;;7.50;6.50;;;;;;;;5112428;27;45558;-74
2021/12/11 14:20:29;;;;;;;;;4.75;4.75;;;;;;;;5086675;27;47494;-75
2021/12/11 14:22:55;;;;;;;;;4.50;4.50;;;;;;;;5089131;27;45483;-71
2021/12/11 14:25:21;;;;;;;;;6.00;4.25;;;;;;;;5084927;27;45417;-82
2021/12/11 14:27:48;;;;;;;;;6.50;4.50;;;;;;;;5079779;27;45417;-78
2021/12/11 14:30:18;;;;;;;;;2.50;2.50;;;;;;;;5082645;27;48803;-83
2021/12/11 14:32:46;;;;;;;;;3.25;3.25;;;;;;;;5092425;27;46505;-74
2021/12/11 14:35:13;;;;;;;;;8.25;5.00;;;;;;;;5109875;27;47465;-75
2021/12/11 14:37:38;;;;;;;;;7.00;5.75;;;;;;;;5091308;27;45596;-74
2021/12/11 14:40:04;;;;;;;;;7.00;5.00;;;;;;;;5094637;27;48394;-75
2021/12/11 14:42:30;;;;;;;;;4.75;3.75;;;;;;;;5119259;27;45341;-74
2021/12/11 14:44:58;;;;;;;;;5.75;5.00;;;;;;;;5128782;27;45324;-74
2021/12/11 14:47:24;;;;;;;;;11.50;7.00;;;;;;;;5090676;27;45442;-74
2021/12/11 14:49:52;;;;;;;;;12.25;9.75;;;;;;;;5081237;27;48916;-73
2021/12/11 14:52:20;;;;;;;;;19.75;15.75;;;;;;;;5096222;27;45396;-74
2021/12/11 14:54:46;;;;;;;;;20.75;17.75;;;;;;;;5078493;27;45420;-74
2021/12/11 14:57:12;;;;;;;;;14.25;10.25;;;;;;;;5100214;27;45391;-73
2021/12/11 14:59:41;;;;;;;;;8.75;5.00;;;;;;;;5101281;27;45386;-78
2021/12/11 15:02:09;;;;;;;;;6.00;4.25;;;;;;;;5084045;27;45359;-78
2021/12/11 15:04:36;;;;;;;;;5.75;5.00;;;;;;;;5082365;27;45586;-75